Time;durP1;ratioP1;P1;durP2;ratioP2;P2;SDS_P1;SDS_P2;PMS_P1;PMS_P2;Temp;Humidity;BMP_temperature;BMP_pressure;BME280_temperature;BME280_humidity;BME280_pressure;Samples;Min_cycle;Max_cycle;Signal;HPM_P1;HPM_P2
2022/12/17 14:17:47;;;;;;;31.50;14.80;;;;;;;9.95;100.00;99135.50;30663;1338;3013240;-63
2022/12/17 14:20:29;;;;;;;22.20;11.10;;;;;;;10.76;100.00;99136.93;24448;1336;3024824;-64
2022/12/17 14:22:59;;;;;;;20.80;10.80;;;;;;;11.47;99.84;99136.89;24515;1338;3050198;-69
2022/12/17 14:25:32;;;;;;;20.20;10.80;;;;;;;11.66;97.94;99138.04;24522;1339;3028639;-68
2022/12/17 14:28:04;;;;;;;18.60;10.00;;;;;;;11.62;96.82;99139.00;24497;1337;3026922;-67
2022/12/17 14:30:41;;;;;;;14.70;7.70;;;;;;;11.37;97.82;99142.29;23845;1336;3028384;-68
2022/12/17 14:33:30;;;;;;;17.60;8.90;;;;;;;11.37;98.69;99144.44;24580;1323;3049751;-67
2022/12/17 14:36:01;;;;;;;22.10;9.60;;;;;;;11.79;96.31;99128.98;24552;1331;3052472;-65
2022/12/17 14:38:31;;;;;;;20.40;11.40;;;;;;;11.59;96.04;99135.36;24561;1334;3026562;-65
2022/12/17 14:42:24;;;;;;;12.20;7.50;;;;;;;11.43;97.10;99140.50;24543;1334;3025727;-65
2022/12/17 14:43:57;;;;;;;22.80;11.30;;;;;;;11.23;97.94;99145.53;24556;1332;3051700;-63
2022/12/17 14:46:27;;;;;;;17.70;8.90;;;;;;;11.07;99.52;99149.11;24543;1334;3049713;-65
2022/12/17 14:49:01;;;;;;;21.20;7.90;;;;;;;11.65;97.76;99138.64;24595;1324;3025815;-68
2022/12/17 14:51:39;;;;;;;13.30;7.60;;;;;;;11.81;95.17;99136.29;24561;1339;3050226;-67
2022/12/17 14:54:24;;;;;;;15.20;8.80;;;;;;;11.48;96.15;99143.27;24580;1331;3054750;-69
2022/12/17 14:56:54;;;;;;;14.50;8.00;;;;;;;11.38;96.87;99146.63;24518;1324;3052716;-67
2022/12/17 14:59:36;;;;;;;13.80;4.90;;;;;;;11.25;97.92;99139.45;24575;1327;3025715;-65
2022/12/17 15:02:09;;;;;;;15.50;5.60;;;;;;;11.48;97.27;99116.64;24564;1324;3052555;-65
2022/12/17 15:04:38;;;;;;;14.00;6.50;;;;;;;11.69;95.74;99107.30;24587;1339;3025795;-65
2022/12/17 15:07:11;;;;;;;13.20;6.70;;;;;;;11.70;95.52;99102.10;24538;1331;3026932;-68
2022/12/17 15:09:40;;;;;;;13.30;7.40;;;;;;;11.47;96.20;99119.02;24545;1326;3049851;-65
2022/12/17 15:12:10;;;;;;;10.60;5.00;;;;;;;11.24;97.54;99124.27;24604;1331;3025683;-67
2022/12/17 15:14:39;;;;;;;9.00;5.00;;;;;;;11.44;97.92;99119.55;24537;1333;3026388;-68
2022/12/17 15:17:08;;;;;;;13.30;7.70;;;;;;;11.60;96.04;99108.62;24599;1324;3049260;-67
2022/12/17 15:19:36;;;;;;;15.10;7.80;;;;;;;11.65;95.32;99111.92;24584;1333;3026439;-66
2022/12/17 15:22:15;;;;;;;11.50;7.00;;;;;;;11.53;96.34;99109.30;24566;1331;3052480;-68
2022/12/17 15:24:44;;;;;;;8.50;5.00;;;;;;;11.37;96.97;99118.45;24571;1324;3051110;-67
2022/12/17 15:27:15;;;;;;;11.50;5.70;;;;;;;11.75;96.54;99109.66;24543;1324;3026636;-65
2022/12/17 15:29:44;;;;;;;8.00;5.40;;;;;;;11.76;95.37;99107.33;24600;1340;3055283;-69
2022/12/17 15:32:17;;;;;;;10.70;6.00;;;;;;;11.85;94.69;99102.09;24552;1322;3028597;-66
2022/12/17 15:34:47;;;;;;;16.90;7.10;;;;;;;11.71;94.99;99109.98;24587;1331;3053575;-67
2022/12/17 15:37:18;;;;;;;11.90;6.60;;;;;;;11.59;95.79;99115.83;24556;1316;3026661;-68
2022/12/17 15:39:47;;;;;;;8.60;4.00;;;;;;;11.31;97.30;99122.38;24538;1334;3026250;-63
2022/12/17 15:45:04;;;;;;;13.40;6.20;;;;;;;12.02;93.34;99088.84;24569;1331;3049321;-64
2022/12/17 15:47:34;;;;;;;11.40;5.80;;;;;;;12.05;93.04;99081.92;24579;1323;3026406;-67
2022/12/17 15:50:07;;;;;;;10.90;6.70;;;;;;;11.93;93.15;99071.02;24628;1338;3028987;-64
2022/12/17 15:52:36;;;;;;;13.50;7.40;;;;;;;11.53;95.41;99088.54;24438;1339;3028863;-70
2022/12/17 15:55:05;;;;;;;10.70;4.30;;;;;;;11.33;97.20;99094.36;24617;1340;3025961;-66
2022/12/17 15:57:35;;;;;;;7.30;4.70;;;;;;;11.86;96.25;99076.77;24567;1331;3050025;-64
2022/12/17 16:00:05;;;;;;;11.80;5.80;;;;;;;12.12;93.11;99066.27;24502;1323;3028595;-68
2022/12/17 16:02:35;;;;;;;12.30;6.90;;;;;;;11.83;94.38;99071.67;24581;1331;3068977;-65
2022/12/17 16:05:04;;;;;;;12.10;7.00;;;;;;;11.79;94.56;99068.30;24523;1331;3024959;-68
2022/12/17 16:07:33;;;;;;;11.90;6.60;;;;;;;11.55;95.88;99078.45;24519;1330;3028562;-68
2022/12/17 16:10:04;;;;;;;7.50;4.40;;;;;;;11.32;97.90;99088.84;24558;1331;3028617;-65
2022/12/17 16:12:33;;;;;;;7.00;4.70;;;;;;;11.92;96.06;99060.54;24568;1330;3049692;-66
2022/12/17 16:15:03;;;;;;;12.00;5.10;;;;;;;11.97;94.51;99054.05;24629;1331;3026947;-70
2022/12/17 16:17:32;;;;;;;11.50;7.00;;;;;;;11.83;94.87;99056.08;24612;1330;3068989;-69
2022/12/17 16:20:05;;;;;;;14.20;7.00;;;;;;;11.62;96.02;99069.85;24562;1341;3027820;-68
2022/12/17 16:22:35;;;;;;;11.80;6.90;;;;;;;11.42;97.24;99075.69;24562;1331;3048722;-68
2022/12/17 16:25:05;;;;;;;6.70;3.90;;;;;;;11.28;98.64;99084.38;24556;1333;3025846;-66
2022/12/17 16:27:34;;;;;;;9.60;4.50;;;;;;;11.77;96.69;99067.05;24502;1334;3028765;-65
2022/12/17 16:30:03;;;;;;;12.70;6.10;;;;;;;11.87;95.15;99076.89;24545;1331;3026736;-68
2022/12/17 16:32:33;;;;;;;11.00;6.70;;;;;;;11.90;95.44;99076.16;24631;1332;3067526;-66
2022/12/17 16:35:03;;;;;;;11.30;6.20;;;;;;;11.68;96.09;99084.02;24609;1324;3025921;-67
2022/12/17 16:37:32;;;;;;;10.50;6.70;;;;;;;11.59;96.79;99088.56;24639;1333;3049057;-64
2022/12/17 16:40:02;;;;;;;9.60;4.30;;;;;;;11.47;96.96;99086.01;24581;1333;3028736;-65
2022/12/17 16:42:31;;;;;;;10.20;5.30;;;;;;;11.73;96.53;99079.81;24606;1334;3052213;-67
2022/12/17 16:45:00;;;;;;;14.90;7.60;;;;;;;11.92;94.87;99059.30;24639;1326;3028516;-65
2022/12/17 16:47:29;;;;;;;18.80;6.50;;;;;;;11.75;95.33;99080.41;24570;1326;3050602;-66
2022/12/17 16:49:58;;;;;;;12.70;6.60;;;;;;;11.64;96.51;99084.45;24622;1332;3026245;-65
2022/12/17 16:52:27;;;;;;;13.40;7.30;;;;;;;11.52;96.77;99101.66;24605;1327;3052813;-66
2022/12/17 16:54:56;;;;;;;10.30;4.70;;;;;;;11.31;98.62;99102.36;24585;1334;3026380;-66
2022/12/17 16:57:26;;;;;;;10.10;5.30;;;;;;;11.83;97.28;99085.58;24579;1324;3053298;-68
2022/12/17 16:59:55;;;;;;;12.30;6.10;;;;;;;12.16;94.16;99076.07;24553;1324;3028231;-66
2022/12/17 17:02:24;;;;;;;11.30;6.40;;;;;;;12.05;94.28;99082.65;24616;1330;3055994;-64
2022/12/17 17:04:53;;;;;;;12.50;7.30;;;;;;;11.83;94.79;99088.39;24567;1340;3026449;-63
2022/12/17 17:07:22;;;;;;;12.40;6.50;;;;;;;11.58;96.87;99099.11;24541;1334;3048619;-67
2022/12/17 17:09:51;;;;;;;10.90;4.80;;;;;;;11.45;98.40;99097.05;24572;1323;3026434;-66
2022/12/17 17:12:20;;;;;;;11.30;5.30;;;;;;;11.92;96.23;99075.96;24564;1334;3068052;-70
2022/12/17 17:14:50;;;;;;;14.20;6.20;;;;;;;12.00;94.45;99077.69;24604;1329;3026219;-64
2022/12/17 17:17:18;;;;;;;10.60;6.40;;;;;;;11.89;94.83;99073.25;24577;1332;3025513;-69
2022/12/17 17:19:47;;;;;;;15.20;6.40;;;;;;;11.73;94.94;99064.55;24564;1334;3068885;-66
2022/12/17 17:22:16;;;;;;;11.00;6.10;;;;;;;11.41;97.04;99062.40;24617;1330;3026080;-67
2022/12/17 17:24:45;;;;;;;11.40;3.70;;;;;;;11.43;97.20;99073.55;24564;1340;3048555;-68
2022/12/17 17:27:14;;;;;;;10.20;5.20;;;;;;;11.91;95.08;99064.64;24544;1340;3025734;-66
2022/12/17 17:29:43;;;;;;;10.70;5.20;;;;;;;11.93;94.08;99069.29;24547;1335;3052552;-67
2022/12/17 17:32:12;;;;;;;9.50;6.00;;;;;;;11.76;94.31;99065.38;24581;1322;3026197;-69
2022/12/17 17:34:41;;;;;;;10.10;6.80;;;;;;;11.65;95.16;99065.27;24547;1324;3050574;-64
2022/12/17 17:37:10;;;;;;;13.20;6.70;;;;;;;11.43;96.62;99075.80;24548;1326;3024961;-63
2022/12/17 17:39:39;;;;;;;9.10;4.00;;;;;;;11.39;97.00;99069.06;24543;1334;3052696;-66
2022/12/17 17:42:08;;;;;;;12.80;5.60;;;;;;;11.68;96.53;99065.60;24540;1334;3026010;-64
2022/12/17 17:44:38;;;;;;;13.70;6.20;;;;;;;11.81;95.32;99054.63;24541;1334;3052227;-65
2022/12/17 17:47:07;;;;;;;12.00;6.60;;;;;;;11.86;94.87;99045.58;24520;1331;3026909;-67
2022/12/17 17:49:36;;;;;;;14.20;7.50;;;;;;;11.58;96.33;99050.52;24491;1333;3028560;-65
2022/12/17 17:52:05;;;;;;;13.30;7.10;;;;;;;11.37;97.48;99076.92;24606;1324;3052438;-65
2022/12/17 17:54:34;;;;;;;12.80;4.30;;;;;;;11.29;98.33;99079.71;24491;1324;3026152;-65
2022/12/17 17:57:03;;;;;;;15.60;5.50;;;;;;;11.54;97.57;99077.09;24568;1320;3056669;-67
2022/12/17 17:59:32;;;;;;;11.50;6.30;;;;;;;11.83;95.32;99060.69;24623;1333;3025847;-65
2022/12/17 18:02:01;;;;;;;14.20;7.20;;;;;;;11.62;96.77;99072.33;24602;1329;3050269;-68
2022/12/17 18:04:30;;;;;;;12.70;7.10;;;;;;;11.46;96.57;99080.31;24616;1324;3026676;-65
2022/12/17 18:06:59;;;;;;;13.10;6.00;;;;;;;11.25;97.65;99077.55;24565;1323;3028068;-65
2022/12/17 18:09:28;;;;;;;8.70;4.70;;;;;;;11.25;97.97;99068.95;24581;1337;3049466;-68
2022/12/17 18:13:53;;;;;;;13.20;5.30;;;;;;;11.37;96.75;99062.89;24623;1326;3025958;-65
2022/12/17 18:14:46;;;;;;;12.90;6.50;;;;;;;11.59;96.00;99058.16;24531;1324;3068606;-66
2022/12/17 18:17:16;;;;;;;10.90;6.90;;;;;;;11.43;95.50;99052.98;24626;1325;3028075;-65
2022/12/17 18:19:47;;;;;;;14.00;7.60;;;;;;;11.11;97.39;99067.69;24568;1334;3049665;-64
2022/12/17 18:22:16;;;;;;;6.40;4.10;;;;;;;11.09;98.34;99077.61;24587;1324;3026611;-66
2022/12/17 18:24:45;;;;;;;13.30;5.00;;;;;;;11.49;96.91;99067.27;24571;1338;3028318;-67
2022/12/17 18:27:14;;;;;;;12.40;5.90;;;;;;;11.84;93.93;99069.58;24633;1323;3028362;-66
2022/12/17 18:29:43;;;;;;;11.80;6.30;;;;;;;11.61;93.88;99065.73;24549;1331;3067622;-68
2022/12/17 18:32:12;;;;;;;14.70;6.80;;;;;;;11.19;96.52;99093.56;24578;1331;3026504;-63
2022/12/17 18:34:41;;;;;;;14.10;7.40;;;;;;;11.19;96.73;99093.77;24553;1334;3051078;-70
2022/12/17 18:37:12;;;;;;;9.20;5.10;;;;;;;11.02;98.13;99109.66;24588;1325;3025869;-67
2022/12/17 18:39:41;;;;;;;9.90;5.40;;;;;;;11.26;97.91;99101.85;24571;1333;3026696;-68
2022/12/17 18:44:58;;;;;;;14.10;7.30;;;;;;;11.38;95.25;99087.02;24559;1334;3069790;-65
2022/12/17 18:47:27;;;;;;;13.40;6.80;;;;;;;11.16;96.99;99093.28;24628;1333;3025953;-65
2022/12/17 18:49:56;;;;;;;11.40;4.60;;;;;;;11.03;98.37;99104.29;24570;1318;3048760;-66
2022/12/17 18:52:26;;;;;;;12.00;5.80;;;;;;;11.14;97.77;99096.02;24567;1331;3027939;-66
2022/12/17 18:54:55;;;;;;;9.70;5.50;;;;;;;11.46;96.33;99086.11;24554;1331;3028659;-67
2022/12/17 18:57:24;;;;;;;14.40;6.70;;;;;;;11.32;95.72;99091.41;24632;1324;3048324;-66
2022/12/17 18:59:53;;;;;;;11.50;6.50;;;;;;;11.03;97.50;99105.00;24565;1332;3028506;-67
2022/12/17 19:02:23;;;;;;;16.10;7.00;;;;;;;10.99;98.02;99090.40;24517;1331;3028574;-70
2022/12/17 19:04:51;;;;;;;10.20;4.40;;;;;;;10.83;99.06;99102.49;24604;1324;3028720;-65
2022/12/17 19:07:21;;;;;;;9.80;4.80;;;;;;;11.18;98.05;99096.08;24534;1324;3068956;-65
2022/12/17 19:09:50;;;;;;;10.70;5.60;;;;;;;11.47;95.89;99074.31;24589;1331;3026693;-63
2022/12/17 19:12:19;;;;;;;9.60;5.70;;;;;;;11.53;94.33;99075.06;24579;1331;3048145;-68
2022/12/17 19:14:47;;;;;;;12.20;6.60;;;;;;;11.15;95.56;99075.95;24581;1330;3026490;-65
2022/12/17 19:17:16;;;;;;;13.50;6.20;;;;;;;10.95;96.93;99085.92;24531;1324;3053748;-66
2022/12/17 19:19:46;;;;;;;7.90;3.90;;;;;;;10.80;98.33;99087.60;24544;1316;3025984;-65
2022/12/17 19:22:15;;;;;;;7.90;4.70;;;;;;;11.27;96.70;99073.86;24553;1331;3051397;-66
2022/12/17 19:24:44;;;;;;;10.80;5.80;;;;;;;11.28;94.99;99083.35;24600;1326;3028194;-67
2022/12/17 19:27:13;;;;;;;12.20;7.10;;;;;;;11.09;96.21;99087.39;24559;1331;3051878;-67
2022/12/17 19:29:42;;;;;;;11.40;7.00;;;;;;;11.02;96.73;99083.36;24587;1330;3026159;-71
2022/12/17 19:32:11;;;;;;;11.20;7.00;;;;;;;10.74;97.90;99106.58;24603;1333;3052011;-67
2022/12/17 19:34:40;;;;;;;11.00;4.90;;;;;;;10.78;98.78;99088.98;24547;1330;3025355;-68
2022/12/17 19:37:09;;;;;;;10.00;5.20;;;;;;;11.17;97.76;99093.71;24539;1322;3054381;-66
2022/12/17 19:39:38;;;;;;;10.30;5.50;;;;;;;11.33;95.64;99094.86;24610;1331;3025207;-67
2022/12/17 19:42:23;;;;;;;13.40;6.80;;;;;;;11.31;94.78;99098.00;24567;1331;3048834;-67
2022/12/17 19:44:53;;;;;;;9.50;6.20;;;;;;;11.20;96.10;99084.89;24577;1331;3055600;-65
2022/12/17 19:47:22;;;;;;;12.40;6.60;;;;;;;10.99;96.58;99061.46;24605;1331;3027814;-66
2022/12/17 19:49:51;;;;;;;11.10;5.20;;;;;;;10.81;98.37;99112.96;24565;1323;3028787;-62
2022/12/17 19:52:20;;;;;;;10.80;5.40;;;;;;;11.12;98.06;99144.92;24546;1324;3055628;-67
2022/12/17 19:54:50;;;;;;;12.60;5.90;;;;;;;11.31;95.85;99144.98;24572;1323;3028783;-68
2022/12/17 19:57:21;;;;;;;13.50;7.60;;;;;;;11.37;95.75;99128.27;24562;1331;3027610;-64
2022/12/17 19:59:51;;;;;;;13.50;7.40;;;;;;;11.07;96.58;99124.89;24518;1333;3028539;-67
2022/12/17 20:02:19;;;;;;;12.80;7.40;;;;;;;10.84;98.23;99139.41;24533;1334;3026797;-67
2022/12/17 20:04:49;;;;;;;9.30;4.30;;;;;;;10.74;99.90;99153.23;24545;1340;3052478;-65
2022/12/17 20:07:18;;;;;;;9.40;5.60;;;;;;;11.26;98.20;99110.64;24542;1331;3028319;-67
2022/12/17 20:09:47;;;;;;;9.20;5.40;;;;;;;11.32;96.82;99076.00;24500;1331;3027979;-69
2022/12/17 20:12:16;;;;;;;11.20;6.60;;;;;;;11.53;95.97;99054.77;24533;1331;3052760;-66
2022/12/17 20:14:46;;;;;;;12.20;7.10;;;;;;;11.38;95.82;99086.30;24553;1331;3028681;-65
2022/12/17 20:17:15;;;;;;;10.80;6.30;;;;;;;11.00;98.37;99137.60;24532;1324;3052649;-66
2022/12/17 20:19:44;;;;;;;7.30;4.50;;;;;;;10.86;99.85;99152.05;24610;1331;3028166;-67
2022/12/17 20:22:13;;;;;;;7.80;5.40;;;;;;;11.29;99.12;99147.61;24513;1333;3055613;-66
2022/12/17 20:24:42;;;;;;;7.70;4.90;;;;;;;11.53;97.04;99122.60;24571;1323;3028469;-66
2022/12/17 20:27:11;;;;;;;7.60;4.40;;;;;;;11.67;95.82;99112.35;24500;1329;3049384;-65
2022/12/17 20:29:40;;;;;;;7.40;4.60;;;;;;;11.49;96.55;99114.29;24553;1331;3026554;-64
2022/12/17 20:32:09;;;;;;;7.40;5.40;;;;;;;11.20;98.66;99167.33;24557;1323;3069188;-68
2022/12/17 20:34:37;;;;;;;5.40;3.50;;;;;;;11.15;99.55;99142.40;24604;1331;3028762;-66
2022/12/17 20:37:06;;;;;;;6.70;4.20;;;;;;;11.44;99.43;99123.58;24576;1331;3049151;-68
2022/12/17 20:39:36;;;;;;;8.90;4.60;;;;;;;11.83;97.38;99093.46;24520;1331;3026654;-66
2022/12/17 20:42:05;;;;;;;10.40;5.60;;;;;;;11.91;96.25;99083.60;24545;1333;3053941;-63
2022/12/17 20:44:34;;;;;;;8.00;5.20;;;;;;;11.76;96.26;99090.08;24592;1332;3026161;-68
2022/12/17 20:47:03;;;;;;;9.20;6.00;;;;;;;11.44;97.69;99119.17;24561;1331;3050766;-64
2022/12/17 20:49:34;;;;;;;6.30;3.60;;;;;;;11.27;99.78;99130.03;24568;1331;3028489;-66
2022/12/17 20:52:03;;;;;;;8.40;4.40;;;;;;;11.60;100.00;99146.36;24547;1331;3028931;-71
2022/12/17 20:54:33;;;;;;;10.20;5.80;;;;;;;11.88;98.10;99144.87;24548;1331;3028461;-63
2022/12/17 20:57:01;;;;;;;8.60;5.10;;;;;;;11.70;98.22;99132.27;24549;1326;3051291;-67
2022/12/17 20:59:31;;;;;;;8.90;5.10;;;;;;;11.49;98.90;99128.36;24608;1331;3026159;-64
2022/12/17 21:02:00;;;;;;;9.60;5.50;;;;;;;11.41;99.54;99141.83;24497;1331;3049927;-65
2022/12/17 21:04:28;;;;;;;4.80;3.00;;;;;;;11.30;99.93;99131.95;24611;1326;3027944;-64
2022/12/17 21:06:58;;;;;;;6.70;4.30;;;;;;;11.79;98.93;99126.59;24537;1327;3052904;-65
2022/12/17 21:09:27;;;;;;;8.90;4.80;;;;;;;12.07;96.39;99105.10;24582;1334;3028578;-68
2022/12/17 21:11:56;;;;;;;8.50;6.10;;;;;;;12.02;96.13;99106.17;24598;1333;3028208;-67
2022/12/17 21:14:25;;;;;;;10.60;5.80;;;;;;;11.79;96.64;99121.65;24590;1334;3052340;-69
2022/12/17 21:16:54;;;;;;;9.40;5.90;;;;;;;11.55;98.21;99123.16;24581;1333;3026613;-65
2022/12/17 21:19:23;;;;;;;6.00;3.70;;;;;;;11.53;99.05;99118.23;24655;1331;3050982;-66
2022/12/17 21:21:52;;;;;;;8.20;4.20;;;;;;;11.77;98.16;99112.34;24550;1325;3026323;-65
2022/12/17 21:24:20;;;;;;;9.00;5.00;;;;;;;12.08;96.25;99113.51;24586;1325;3026524;-65
2022/12/17 21:26:49;;;;;;;9.40;5.50;;;;;;;12.01;95.75;99110.33;24539;1324;3052674;-64
2022/12/17 21:29:18;;;;;;;9.20;5.80;;;;;;;11.86;96.28;99115.92;24591;1324;3028477;-64
2022/12/17 21:31:49;;;;;;;10.30;6.70;;;;;;;11.77;97.01;99130.07;24530;1324;3055399;-65
2022/12/17 21:34:21;;;;;;;8.00;4.50;;;;;;;11.53;98.25;99138.72;24600;1326;3026648;-69
2022/12/17 21:36:51;;;;;;;9.20;5.10;;;;;;;11.85;98.32;99144.05;24537;1317;3027645;-62
2022/12/17 21:39:20;;;;;;;11.10;5.40;;;;;;;12.24;95.34;99131.81;24553;1324;3029470;-67
2022/12/17 21:44:47;;;;;;;7.30;5.30;;;;;;;11.75;96.57;99141.80;24481;1336;3054173;-66
2022/12/17 21:47:16;;;;;;;10.80;6.20;;;;;;;11.57;98.20;99143.89;24613;1334;3026295;-66
2022/12/17 21:49:45;;;;;;;6.60;4.00;;;;;;;11.47;99.42;99146.52;24545;1340;3051415;-67
2022/12/17 21:52:14;;;;;;;7.90;4.90;;;;;;;11.89;98.28;99135.73;24576;1324;3028907;-64
2022/12/17 21:54:43;;;;;;;10.40;6.60;;;;;;;12.14;96.21;99144.50;24569;1333;3055690;-65
2022/12/17 21:57:12;;;;;;;10.40;6.70;;;;;;;12.06;96.52;99150.69;24514;1331;3028223;-67
2022/12/17 21:59:41;;;;;;;12.40;7.00;;;;;;;11.96;96.24;99154.55;24529;1329;3049918;-70
2022/12/17 22:02:10;;;;;;;12.80;7.40;;;;;;;11.71;97.34;99166.61;24619;1333;3028996;-66
2022/12/17 22:04:39;;;;;;;7.20;4.20;;;;;;;11.54;99.00;99173.95;24526;1334;3067459;-64
2022/12/17 22:07:08;;;;;;;10.70;5.20;;;;;;;11.92;98.07;99169.05;24597;1323;3027991;-67
2022/12/17 22:09:37;;;;;;;9.50;6.60;;;;;;;12.38;95.18;99154.14;24519;1341;3049184;-65
2022/12/17 22:14:54;;;;;;;14.10;8.00;;;;;;;12.22;94.10;99163.58;24559;1340;3052468;-64
2022/12/17 22:17:23;;;;;;;14.80;8.00;;;;;;;11.92;95.19;99180.96;24570;1323;3026655;-68
2022/12/17 22:19:51;;;;;;;12.70;5.70;;;;;;;11.75;97.16;99184.77;24588;1334;3050605;-65
2022/12/17 22:22:20;;;;;;;13.70;6.00;;;;;;;12.12;95.91;99179.38;24582;1324;3028363;-66
2022/12/17 22:24:49;;;;;;;14.70;6.60;;;;;;;12.45;93.22;99173.80;24518;1334;3052816;-65
2022/12/17 22:27:18;;;;;;;15.70;7.40;;;;;;;12.50;92.55;99177.02;24533;1334;3027975;-63
2022/12/17 22:35:31;;;;;;;14.70;5.20;;;;;;;11.99;93.46;99192.38;24522;1340;3051902;-68
2022/12/17 22:38:00;;;;;;;18.10;7.30;;;;;;;12.53;91.96;99194.86;24526;1326;3026653;-67
2022/12/17 22:40:34;;;;;;;19.60;9.20;;;;;;;12.75;89.74;99198.70;24576;1331;3027953;-65
2022/12/17 22:45:50;;;;;;;25.10;9.10;;;;;;;12.51;90.31;99214.33;24502;1331;3049998;-67
2022/12/17 22:48:19;;;;;;;15.40;7.70;;;;;;;12.36;90.06;99225.09;24571;1322;3028459;-66
2022/12/17 22:50:48;;;;;;;14.20;5.90;;;;;;;12.18;90.52;99227.23;24544;1330;3067972;-67
2022/12/17 22:53:17;;;;;;;13.20;5.50;;;;;;;12.64;89.09;99235.31;24582;1330;3028080;-66
2022/12/17 22:55:47;;;;;;;13.40;6.40;;;;;;;13.12;86.36;99240.05;24521;1334;3048620;-67
2022/12/17 22:58:16;;;;;;;14.00;6.70;;;;;;;13.06;85.47;99242.45;24559;1339;3026604;-67
2022/12/17 23:00:45;;;;;;;12.90;7.20;;;;;;;12.59;85.78;99258.07;24576;1331;3051920;-65
2022/12/17 23:03:15;;;;;;;10.30;5.60;;;;;;;12.15;87.80;99243.60;24508;1328;3026241;-68
2022/12/17 23:05:44;;;;;;;7.00;4.70;;;;;;;12.09;87.53;99248.74;24592;1331;3051630;-70
2022/12/17 23:08:17;;;;;;;13.30;5.20;;;;;;;12.46;86.68;99256.19;24558;1333;3028939;-65
2022/12/17 23:10:46;;;;;;;9.70;4.80;;;;;;;12.79;84.03;99250.58;24489;1318;3028500;-67
2022/12/17 23:13:14;;;;;;;8.90;4.50;;;;;;;12.62;83.00;99250.78;24546;1331;3050806;-68
2022/12/17 23:15:44;;;;;;;7.70;4.70;;;;;;;12.38;83.97;99247.25;24595;1324;3028381;-67
2022/12/17 23:18:12;;;;;;;9.40;5.90;;;;;;;11.91;85.92;99241.59;24570;1323;3052645;-68
2022/12/17 23:20:41;;;;;;;8.90;5.50;;;;;;;11.75;86.70;99237.56;24513;1330;3026096;-67
2022/12/17 23:23:10;;;;;;;6.40;3.60;;;;;;;11.59;87.87;99237.97;24531;1330;3051954;-69
2022/12/17 23:25:39;;;;;;;6.10;3.80;;;;;;;12.33;86.33;99248.29;24514;1329;3028329;-62
2022/12/17 23:28:08;;;;;;;7.20;4.60;;;;;;;12.70;84.48;99257.09;24611;1334;3055866;-67
2022/12/17 23:30:37;;;;;;;8.60;5.20;;;;;;;12.68;82.79;99253.88;24494;1337;3027205;-63
2022/12/17 23:33:06;;;;;;;8.10;4.60;;;;;;;12.20;83.34;99253.77;24521;1331;3048593;-68
2022/12/17 23:35:35;;;;;;;7.30;5.00;;;;;;;11.63;85.00;99263.27;24489;1337;3028871;-63
2022/12/17 23:38:04;;;;;;;7.20;4.30;;;;;;;11.63;84.36;99263.14;24491;1324;3028184;-64
2022/12/17 23:40:34;;;;;;;6.90;3.80;;;;;;;11.60;84.98;99276.16;24573;1337;3049813;-68
2022/12/17 23:43:03;;;;;;;5.60;3.70;;;;;;;11.94;83.95;99263.15;24507;1334;3026302;-69
2022/12/17 23:45:32;;;;;;;7.10;4.80;;;;;;;12.42;82.15;99271.52;24507;1338;3027002;-66
2022/12/17 23:48:01;;;;;;;9.10;4.90;;;;;;;11.97;82.59;99286.06;24542;1337;3049283;-66
2022/12/17 23:50:30;;;;;;;9.30;4.90;;;;;;;11.79;83.47;99289.09;24591;1328;3026219;-66
2022/12/17 23:52:59;;;;;;;10.60;5.20;;;;;;;11.65;83.72;99295.98;24548;1331;3068650;-66
2022/12/17 23:55:28;;;;;;;6.50;4.10;;;;;;;11.39;86.03;99304.57;24531;1329;3026102;-66
2022/12/17 23:57:59;;;;;;;7.00;4.50;;;;;;;11.82;84.43;99310.12;24534;1331;3048794;-67
